createdAt,value
2022-12-15T00:02:18.541Z,45.28
2022-12-15T00:05:04.142Z,45.00
2022-12-15T00:07:49.623Z,43.17
2022-12-15T00:10:35.500Z,43.78
2022-12-15T00:13:20.770Z,42.97
2022-12-15T00:16:07.879Z,42.63
2022-12-15T00:18:53.685Z,42.08
2022-12-15T00:21:39.227Z,42.15
2022-12-15T00:24:25.407Z,40.72
2022-12-15T00:27:11.125Z,40.15
2022-12-15T00:29:56.489Z,39.38
2022-12-15T00:32:43.988Z,39.00
2022-12-15T00:35:29.519Z,39.40
2022-12-15T00:38:15.983Z,38.88
2022-12-15T00:40:44.173Z,39.65
2022-12-15T00:43:13.248Z,38.40
2022-12-15T00:45:59.061Z,38.50
2022-12-15T00:48:28.984Z,38.28
2022-12-15T00:50:56.176Z,38.28
2022-12-15T00:53:42.520Z,38.45
2022-12-15T00:56:28.259Z,39.05
2022-12-15T00:59:13.814Z,35.80
2022-12-15T01:01:59.711Z,36.25
2022-12-15T01:04:47.007Z,35.63
2022-12-15T01:07:32.752Z,37.03
2022-12-15T01:10:18.065Z,34.72
2022-12-15T01:13:03.997Z,35.90
2022-12-15T01:15:49.467Z,34.65
2022-12-15T01:18:35.216Z,34.05
2022-12-15T01:21:06.750Z,33.53
2022-12-15T01:23:35.447Z,33.35
2022-12-15T01:26:03.869Z,33.40
2022-12-15T01:28:32.134Z,32.55
2022-12-15T01:31:00.571Z,32.35
2022-12-15T01:33:29.370Z,31.60
2022-12-15T01:35:59.216Z,32.35
2022-12-15T01:38:29.222Z,31.63
2022-12-15T01:40:59.632Z,31.85
2022-12-15T01:43:29.599Z,30.73
2022-12-15T01:46:01.481Z,32.08
2022-12-15T01:48:40.949Z,30.50
2022-12-15T01:51:18.067Z,29.73
2022-12-15T01:53:50.347Z,29.98
2022-12-15T01:56:19.276Z,30.50
2022-12-15T01:58:48.295Z,27.95
2022-12-15T02:01:16.487Z,28.33
2022-12-15T02:03:44.740Z,28.30
2022-12-15T02:06:13.225Z,28.05
2022-12-15T02:08:41.381Z,27.63
2022-12-15T02:11:39.555Z,27.98
2022-12-15T02:14:08.357Z,27.40
2022-12-15T02:16:44.665Z,27.80
2022-12-15T02:19:25.610Z,26.40
2022-12-15T02:21:58.613Z,26.77
2022-12-15T02:24:40.408Z,26.48
2022-12-15T02:27:14.683Z,24.95
2022-12-15T02:30:05.687Z,26.48
2022-12-15T02:32:36.341Z,26.27
2022-12-15T02:35:06.794Z,24.98
2022-12-15T02:37:35.837Z,25.55
2022-12-15T02:40:04.157Z,24.77
2022-12-15T02:42:32.292Z,24.90
2022-12-15T02:45:01.692Z,25.08
2022-12-15T02:47:35.250Z,24.55
2022-12-15T02:50:29.309Z,25.00
2022-12-15T02:53:04.217Z,23.83
2022-12-15T02:55:37.221Z,24.30
2022-12-15T02:58:08.035Z,24.30
2022-12-15T03:00:39.043Z,23.75
2022-12-15T03:03:08.826Z,23.88
2022-12-15T03:05:37.226Z,22.98
2022-12-15T03:08:05.761Z,23.52
2022-12-15T03:10:33.990Z,23.17
2022-12-15T03:13:02.188Z,21.70
2022-12-15T03:15:35.072Z,22.48
2022-12-15T03:18:03.542Z,22.33
2022-12-15T03:20:33.019Z,22.33
2022-12-15T03:23:02.134Z,22.50
2022-12-15T03:25:30.485Z,22.05
2022-12-15T03:27:59.088Z,21.42
2022-12-15T03:30:27.261Z,21.60
2022-12-15T03:32:55.772Z,21.67
2022-12-15T03:35:23.979Z,21.73
2022-12-15T03:37:53.526Z,21.13
2022-12-15T03:40:21.767Z,21.42
2022-12-15T03:42:50.081Z,21.67
2022-12-15T03:45:19.354Z,20.40
2022-12-15T03:47:47.803Z,20.90
2022-12-15T03:50:17.757Z,20.95
2022-12-15T03:52:45.996Z,20.52
2022-12-15T03:55:16.109Z,19.95
2022-12-15T03:57:44.322Z,19.48
2022-12-15T04:00:15.010Z,19.50
2022-12-15T04:02:43.455Z,19.90
2022-12-15T04:05:13.786Z,19.00
2022-12-15T04:07:41.924Z,19.10
2022-12-15T04:10:10.846Z,19.05
2022-12-15T04:12:40.690Z,18.70
2022-12-15T04:15:09.945Z,19.40
2022-12-15T04:17:38.166Z,18.42
2022-12-15T04:20:12.226Z,18.83
2022-12-15T04:22:41.026Z,19.13
2022-12-15T04:25:28.090Z,18.55
2022-12-15T04:28:14.985Z,18.10
2022-12-15T04:31:02.893Z,18.90
2022-12-15T04:33:48.489Z,18.40
2022-12-15T04:36:34.120Z,17.83
2022-12-15T04:39:19.869Z,18.42
2022-12-15T04:42:05.318Z,18.27
2022-12-15T04:44:52.442Z,17.60
2022-12-15T04:47:37.859Z,17.48
2022-12-15T04:50:24.139Z,17.23
2022-12-15T04:53:10.031Z,16.92
2022-12-15T04:55:55.580Z,17.55
2022-12-15T04:58:40.838Z,17.42
2022-12-15T05:01:27.814Z,17.85
2022-12-15T05:04:13.217Z,17.08
2022-12-15T05:06:58.908Z,17.23
2022-12-15T05:09:44.424Z,17.30
2022-12-15T05:12:29.779Z,16.70
2022-12-15T05:15:15.070Z,16.48
2022-12-15T05:18:01.993Z,17.23
2022-12-15T05:20:49.947Z,16.48
2022-12-15T05:23:35.515Z,16.13
2022-12-15T05:26:21.314Z,16.10
2022-12-15T05:29:06.699Z,16.10
2022-12-15T05:31:52.207Z,16.42
2022-12-15T05:34:22.707Z,16.25
2022-12-15T05:36:50.943Z,16.80
2022-12-15T05:39:19.053Z,16.17
2022-12-15T05:41:47.362Z,15.30
2022-12-15T05:44:15.673Z,16.10
2022-12-15T05:46:46.530Z,15.60
2022-12-15T05:49:16.240Z,16.52
2022-12-15T05:51:46.651Z,15.57
2022-12-15T05:54:16.537Z,15.68
2022-12-15T05:56:44.770Z,16.48
2022-12-15T05:59:12.975Z,18.63
2022-12-15T06:01:41.202Z,20.58
2022-12-15T06:04:09.437Z,24.08
2022-12-15T06:06:37.543Z,22.65
2022-12-15T06:09:07.112Z,23.45
2022-12-15T06:11:35.244Z,31.33
2022-12-15T06:14:03.327Z,33.47
2022-12-15T06:16:31.800Z,31.40
2022-12-15T06:19:01.091Z,37.42
2022-12-15T06:21:31.145Z,39.17
2022-12-15T06:24:00.736Z,34.88
2022-12-15T06:26:31.084Z,34.40
2022-12-15T06:29:02.658Z,35.35
2022-12-15T06:31:31.033Z,36.72
2022-12-15T06:34:02.102Z,38.63
2022-12-15T06:36:30.976Z,49.65
2022-12-15T06:38:59.868Z,44.42
2022-12-15T06:41:27.988Z,55.25
2022-12-15T06:43:57.493Z,50.83
2022-12-15T06:46:25.819Z,55.95
2022-12-15T06:48:53.989Z,55.13
2022-12-15T06:51:22.159Z,56.88
2022-12-15T06:53:54.270Z,75.63
2022-12-15T06:56:30.410Z,65.82
2022-12-15T06:59:03.551Z,62.38
2022-12-15T07:01:32.037Z,70.72
2022-12-15T07:04:01.685Z,63.08
2022-12-15T07:06:31.821Z,65.45
2022-12-15T07:09:00.007Z,65.00
2022-12-15T07:11:28.199Z,62.00
2022-12-15T07:13:56.330Z,58.72
2022-12-15T07:16:26.890Z,54.45
2022-12-15T07:18:55.129Z,54.78
2022-12-15T07:21:23.247Z,54.72
2022-12-15T07:23:56.347Z,52.42
2022-12-15T07:26:25.441Z,49.75
2022-12-15T07:28:54.522Z,50.28
2022-12-15T07:31:23.097Z,50.90
2022-12-15T07:33:54.867Z,47.13
2022-12-15T07:36:23.197Z,45.95
2022-12-15T07:38:51.929Z,46.08
2022-12-15T07:41:20.453Z,44.78
2022-12-15T07:43:48.956Z,44.97
2022-12-15T07:46:18.194Z,43.75
2022-12-15T07:48:50.041Z,42.65
2022-12-15T07:51:21.320Z,42.30
2022-12-15T07:53:50.745Z,41.40
2022-12-15T07:56:19.095Z,40.10
2022-12-15T07:58:47.252Z,40.03
2022-12-15T08:01:15.644Z,39.53
2022-12-15T08:03:43.898Z,39.13
2022-12-15T08:06:12.687Z,36.85
2022-12-15T08:08:42.212Z,37.25
2022-12-15T08:11:11.417Z,36.53
2022-12-15T08:16:28.047Z,34.53
2022-12-15T08:18:57.133Z,34.35
2022-12-15T08:21:25.403Z,34.80
2022-12-15T08:23:55.186Z,32.63
2022-12-15T08:26:28.428Z,32.80
2022-12-15T08:29:11.828Z,32.35
2022-12-15T08:31:46.013Z,31.92
2022-12-15T08:34:14.135Z,32.03
2022-12-15T08:36:42.402Z,31.00
2022-12-15T08:39:11.918Z,29.50
2022-12-15T08:41:41.240Z,31.58
2022-12-15T08:44:09.393Z,30.35
2022-12-15T08:46:37.564Z,29.70
2022-12-15T08:49:05.645Z,30.75
2022-12-15T08:51:34.053Z,29.30
2022-12-15T08:54:02.383Z,29.15
2022-12-15T08:56:31.917Z,28.63
2022-12-15T08:59:01.563Z,28.23
2022-12-15T09:01:31.410Z,27.88
2022-12-15T09:03:59.730Z,26.02
2022-12-15T09:06:28.804Z,27.17
2022-12-15T09:08:57.628Z,26.77
2022-12-15T09:11:26.025Z,25.98
2022-12-15T09:13:55.606Z,25.58
2022-12-15T09:16:23.929Z,25.10
2022-12-15T09:18:53.557Z,24.65
2022-12-15T09:21:22.625Z,24.73
2022-12-15T09:23:51.903Z,24.00
2022-12-15T09:26:20.804Z,24.05
2022-12-15T09:28:50.327Z,23.42
2022-12-15T09:31:22.220Z,23.33
2022-12-15T09:33:50.696Z,22.83
2022-12-15T09:36:18.905Z,22.52
2022-12-15T09:38:46.988Z,23.52
2022-12-15T09:41:23.650Z,21.90
2022-12-15T09:43:55.901Z,22.80
2022-12-15T09:46:28.666Z,21.33
2022-12-15T09:48:57.119Z,22.02
2022-12-15T09:51:30.208Z,21.20
2022-12-15T09:53:58.898Z,23.10
2022-12-15T09:56:31.068Z,21.17
2022-12-15T09:59:01.693Z,20.65
2022-12-15T10:01:33.616Z,21.25
2022-12-15T10:04:03.432Z,20.88
2022-12-15T10:06:33.619Z,19.50
2022-12-15T10:09:03.353Z,19.95
2022-12-15T10:11:41.435Z,19.48
2022-12-15T10:14:15.518Z,19.25
2022-12-15T10:16:51.695Z,19.60
2022-12-15T10:19:20.999Z,19.40
2022-12-15T10:21:50.644Z,18.38
2022-12-15T10:24:37.471Z,19.48
2022-12-15T10:27:16.523Z,18.23
2022-12-15T10:29:45.701Z,17.95
2022-12-15T10:32:21.439Z,18.90
2022-12-15T10:34:49.750Z,17.98
2022-12-15T10:37:19.502Z,18.25
2022-12-15T10:39:50.325Z,18.05
2022-12-15T10:42:21.178Z,17.85
2022-12-15T10:44:50.839Z,17.38
2022-12-15T10:47:22.673Z,16.83
2022-12-15T10:49:51.290Z,17.55
2022-12-15T10:52:28.529Z,19.13
2022-12-15T10:54:57.165Z,21.48
2022-12-15T10:57:28.802Z,24.52
2022-12-15T10:59:57.473Z,24.48
2022-12-15T11:02:36.880Z,25.30
2022-12-15T11:05:07.171Z,26.52
2022-12-15T11:07:39.889Z,27.80
2022-12-15T11:10:26.285Z,26.45
2022-12-15T11:13:14.049Z,26.92
2022-12-15T11:15:47.127Z,27.70
2022-12-15T11:18:39.205Z,26.38
2022-12-15T11:21:11.187Z,29.15
2022-12-15T11:23:48.730Z,34.55
2022-12-15T11:26:24.380Z,31.50
2022-12-15T11:28:56.236Z,32.10
2022-12-15T11:31:26.761Z,34.17
2022-12-15T11:33:56.485Z,33.60
2022-12-15T11:36:35.725Z,33.17
2022-12-15T11:39:05.316Z,35.00
2022-12-15T11:41:37.445Z,33.72
2022-12-15T11:44:20.121Z,33.38
2022-12-15T11:46:51.403Z,33.35
2022-12-15T11:49:55.686Z,33.08
2022-12-15T11:52:35.891Z,32.55
2022-12-15T11:55:07.758Z,32.45
2022-12-15T11:57:46.565Z,32.95
2022-12-15T12:00:19.593Z,33.22
2022-12-15T12:02:55.604Z,32.47
2022-12-15T12:05:55.713Z,33.17
2022-12-15T12:08:36.557Z,32.47
2022-12-15T12:11:07.786Z,33.30
2022-12-15T12:13:39.363Z,31.70
2022-12-15T12:16:11.573Z,31.63
2022-12-15T12:18:41.210Z,31.55
2022-12-15T12:21:11.986Z,31.17
2022-12-15T12:23:41.677Z,30.15
2022-12-15T12:26:12.611Z,30.73
2022-12-15T12:28:46.724Z,30.17
2022-12-15T12:31:22.553Z,30.48
2022-12-15T12:33:52.023Z,30.65
2022-12-15T12:36:21.532Z,33.15
2022-12-15T12:38:51.238Z,38.00
2022-12-15T12:41:23.706Z,36.10
2022-12-15T12:43:53.607Z,39.00
2022-12-15T12:46:23.452Z,41.00
2022-12-15T12:48:52.588Z,38.92
2022-12-15T12:51:51.949Z,38.97
2022-12-15T12:54:50.352Z,39.35
2022-12-15T12:57:45.402Z,40.17
2022-12-15T13:00:21.792Z,36.67
2022-12-15T13:02:56.232Z,38.00
2022-12-15T13:05:30.006Z,35.47
2022-12-15T13:08:27.349Z,36.75
2022-12-15T13:10:56.507Z,34.63
2022-12-15T13:13:42.041Z,35.85
2022-12-15T13:16:12.226Z,35.55
2022-12-15T13:18:59.485Z,35.50
2022-12-15T13:22:04.379Z,34.90
2022-12-15T13:24:36.103Z,37.58
2022-12-15T13:27:14.194Z,47.65
2022-12-15T13:30:01.144Z,74.30
2022-12-15T13:32:36.171Z,78.35
2022-12-15T13:35:25.225Z,78.22
2022-12-15T13:37:54.333Z,98.32
2022-12-15T13:40:33.886Z,93.32
2022-12-15T13:43:10.493Z,82.88
2022-12-15T13:45:50.241Z,121.25
2022-12-15T13:48:33.313Z,107.45
2022-12-15T13:51:10.401Z,94.05
2022-12-15T13:53:40.252Z,103.60
2022-12-15T13:56:20.989Z,133.07
2022-12-15T13:58:52.153Z,113.15
2022-12-15T14:01:23.928Z,118.57
2022-12-15T14:04:08.088Z,135.32
2022-12-15T14:06:37.975Z,156.63
2022-12-15T14:09:06.992Z,179.60
2022-12-15T14:11:52.843Z,140.18
2022-12-15T14:14:24.938Z,120.40
2022-12-15T14:16:57.280Z,112.82
2022-12-15T14:19:26.601Z,147.40
2022-12-15T14:21:55.818Z,124.93
2022-12-15T14:24:38.449Z,133.20
2022-12-15T14:27:09.259Z,125.82
2022-12-15T14:29:37.500Z,123.88
2022-12-15T14:32:06.109Z,124.18
2022-12-15T14:34:36.956Z,125.03
2022-12-15T14:37:08.905Z,122.78
2022-12-15T14:39:37.781Z,122.50
2022-12-15T14:42:06.063Z,121.35
2022-12-15T14:44:39.137Z,116.95
2022-12-15T14:47:08.566Z,119.40
2022-12-15T14:49:40.941Z,117.82
2022-12-15T14:52:13.854Z,113.20
2022-12-15T14:54:52.086Z,111.05
2022-12-15T14:57:23.541Z,109.72
2022-12-15T14:59:53.492Z,106.30
2022-12-15T15:02:23.009Z,102.30
2022-12-15T15:05:03.224Z,102.43
2022-12-15T15:07:32.368Z,102.43
2022-12-15T15:10:00.684Z,100.10
2022-12-15T15:12:40.312Z,98.90
2022-12-15T15:15:15.769Z,96.75
2022-12-15T15:17:46.928Z,97.22
2022-12-15T15:20:19.296Z,98.75
2022-12-15T15:22:47.761Z,97.55
2022-12-15T15:25:31.602Z,96.20
2022-12-15T15:28:15.566Z,93.90
2022-12-15T15:30:48.316Z,94.18
2022-12-15T15:33:17.155Z,99.65
2022-12-15T15:35:45.633Z,101.32
2022-12-15T15:38:18.206Z,102.88
2022-12-15T15:40:50.918Z,102.70
2022-12-15T15:43:19.543Z,100.22
2022-12-15T15:45:50.404Z,99.50
2022-12-15T15:48:20.686Z,94.00
2022-12-15T15:50:48.837Z,90.07
2022-12-15T15:53:18.249Z,93.35
2022-12-15T15:55:46.369Z,98.95
2022-12-15T15:58:14.555Z,99.78
2022-12-15T16:00:42.775Z,104.43
2022-12-15T16:03:12.469Z,104.28
2022-12-15T16:05:41.124Z,87.68
2022-12-15T16:08:11.156Z,90.70
2022-12-15T16:10:39.518Z,89.40
2022-12-15T16:13:07.686Z,88.10
2022-12-15T16:15:35.951Z,87.45
2022-12-15T16:18:04.084Z,85.03
2022-12-15T16:20:33.692Z,87.05
2022-12-15T16:23:02.901Z,85.45
2022-12-15T16:25:41.171Z,81.78
2022-12-15T16:28:14.249Z,81.40
2022-12-15T16:30:43.186Z,80.28
2022-12-15T16:33:11.481Z,78.85
2022-12-15T16:35:41.638Z,77.20
2022-12-15T16:38:15.952Z,79.70
2022-12-15T16:40:44.258Z,77.63
2022-12-15T16:43:16.039Z,75.47
2022-12-15T16:45:44.489Z,75.60
2022-12-15T16:48:12.844Z,73.75
2022-12-15T16:50:43.436Z,71.93
2022-12-15T16:53:15.355Z,73.87
2022-12-15T16:55:43.592Z,69.82
2022-12-15T16:58:14.955Z,70.18
2022-12-15T17:00:43.200Z,71.32
2022-12-15T17:03:13.444Z,76.38
2022-12-15T17:05:44.034Z,74.38
2022-12-15T17:08:19.922Z,75.32
2022-12-15T17:10:48.422Z,75.10
2022-12-15T17:13:36.550Z,77.97
2022-12-15T17:16:06.992Z,78.13
2022-12-15T17:18:35.292Z,78.43
2022-12-15T17:21:06.612Z,75.85
2022-12-15T17:23:35.254Z,76.82
2022-12-15T17:26:27.416Z,76.93
2022-12-15T17:28:51.937Z,75.93
2022-12-15T17:31:21.091Z,77.13
2022-12-15T17:33:49.240Z,75.72
2022-12-15T17:36:20.914Z,74.97
2022-12-15T17:38:49.117Z,76.95
2022-12-15T17:41:35.413Z,75.82
2022-12-15T17:44:32.237Z,76.18
2022-12-15T17:46:55.635Z,77.13
2022-12-15T17:49:23.812Z,77.30
2022-12-15T17:51:53.446Z,74.57
2022-12-15T17:54:21.634Z,77.18
2022-12-15T17:56:50.158Z,77.57
2022-12-15T17:59:20.181Z,76.97
2022-12-15T18:01:49.152Z,79.97
2022-12-15T18:04:17.720Z,75.13
2022-12-15T18:06:45.899Z,76.53
2022-12-15T18:09:16.221Z,75.45
2022-12-15T18:11:46.747Z,74.22
2022-12-15T18:14:15.430Z,75.13
2022-12-15T18:16:43.609Z,74.88
2022-12-15T18:19:11.918Z,73.05
2022-12-15T18:21:40.101Z,73.03
2022-12-15T18:24:12.273Z,71.60
2022-12-15T18:26:41.868Z,72.47
2022-12-15T18:29:14.275Z,74.88
2022-12-15T18:31:42.535Z,73.30
2022-12-15T18:34:12.802Z,75.07
2022-12-15T18:36:41.095Z,70.80
2022-12-15T18:39:17.192Z,72.95
2022-12-15T18:41:46.919Z,73.07
2022-12-15T18:44:19.286Z,72.47
2022-12-15T18:46:48.195Z,73.15
2022-12-15T18:49:16.728Z,74.03
2022-12-15T18:51:46.439Z,74.10
2022-12-15T18:54:18.293Z,76.63
2022-12-15T18:56:48.573Z,73.80
2022-12-15T18:59:17.824Z,74.93
2022-12-15T19:01:46.621Z,72.43
2022-12-15T19:04:14.942Z,74.93
2022-12-15T19:06:43.099Z,75.60
2022-12-15T19:09:14.872Z,79.90
2022-12-15T19:12:03.192Z,82.13
2022-12-15T19:14:42.830Z,84.82
2022-12-15T19:17:29.376Z,85.10
2022-12-15T19:20:15.438Z,85.60
2022-12-15T19:22:43.918Z,84.70
2022-12-15T19:25:25.512Z,84.43
2022-12-15T19:27:58.881Z,83.22
2022-12-15T19:30:29.502Z,82.00
2022-12-15T19:32:57.679Z,78.63
2022-12-15T19:35:25.918Z,81.72
2022-12-15T19:37:55.515Z,83.78
2022-12-15T19:40:24.927Z,83.03
2022-12-15T19:42:55.535Z,85.50
2022-12-15T19:45:25.081Z,83.63
2022-12-15T19:47:55.124Z,88.30
2022-12-15T19:50:24.449Z,101.13
2022-12-15T19:52:54.840Z,97.47
2022-12-15T19:55:25.745Z,94.35
2022-12-15T19:57:54.160Z,96.13
2022-12-15T20:00:24.865Z,103.90
2022-12-15T20:02:55.030Z,102.45
2022-12-15T20:05:23.881Z,101.70
2022-12-15T20:07:52.688Z,103.80
2022-12-15T20:10:27.535Z,100.43
2022-12-15T20:12:58.052Z,100.05
2022-12-15T20:15:26.594Z,97.53
2022-12-15T20:17:57.015Z,97.45
2022-12-15T20:20:26.861Z,95.47
2022-12-15T20:22:56.274Z,97.30
2022-12-15T20:25:26.742Z,93.97
2022-12-15T20:27:55.014Z,93.85
2022-12-15T20:30:24.223Z,94.22
2022-12-15T20:32:52.366Z,91.55
2022-12-15T20:35:22.533Z,88.47
2022-12-15T20:37:50.903Z,91.50
2022-12-15T20:40:19.436Z,90.32
2022-12-15T20:42:47.658Z,91.28
2022-12-15T20:45:16.490Z,91.60
2022-12-15T20:47:45.938Z,86.80
2022-12-15T20:50:25.084Z,90.60
2022-12-15T20:52:53.385Z,91.47
2022-12-15T20:55:23.341Z,89.53
2022-12-15T20:57:51.478Z,92.97
2022-12-15T21:00:20.156Z,91.53
2022-12-15T21:02:48.556Z,91.40
2022-12-15T21:05:18.805Z,90.57
2022-12-15T21:07:48.525Z,88.65
2022-12-15T21:10:17.418Z,91.80
2022-12-15T21:12:46.807Z,89.38
2022-12-15T21:15:16.222Z,87.45
2022-12-15T21:17:44.441Z,88.82
2022-12-15T21:20:13.257Z,90.63
2022-12-15T21:22:41.488Z,90.72
2022-12-15T21:25:24.068Z,89.47
2022-12-15T21:27:52.166Z,89.07
2022-12-15T21:30:21.692Z,88.63
2022-12-15T21:32:49.927Z,89.55
2022-12-15T21:35:19.050Z,86.00
2022-12-15T21:37:48.059Z,87.53
2022-12-15T21:40:21.450Z,87.07
2022-12-15T21:42:50.063Z,84.90
2022-12-15T21:45:19.017Z,83.28
2022-12-15T21:48:04.530Z,83.80
2022-12-15T21:50:32.736Z,81.18
2022-12-15T21:53:01.005Z,80.72
2022-12-15T21:55:30.593Z,80.95
2022-12-15T21:57:58.864Z,77.63
2022-12-15T22:00:27.382Z,78.30
2022-12-15T22:02:55.640Z,78.20
2022-12-15T22:05:24.708Z,77.32
2022-12-15T22:07:52.873Z,74.38
2022-12-15T22:10:21.012Z,75.72
2022-12-15T22:12:57.497Z,69.55
2022-12-15T22:15:27.815Z,70.20
2022-12-15T22:17:56.144Z,67.80
2022-12-15T22:20:25.117Z,67.93
2022-12-15T22:22:53.310Z,67.00
2022-12-15T22:25:24.136Z,68.03
2022-12-15T22:27:54.787Z,67.00
2022-12-15T22:30:26.232Z,67.65
2022-12-15T22:32:54.670Z,67.95
2022-12-15T22:35:24.371Z,68.05
2022-12-15T22:37:53.902Z,66.32
2022-12-15T22:40:23.441Z,68.32
2022-12-15T22:42:55.196Z,67.82
2022-12-15T22:45:24.091Z,65.80
2022-12-15T22:47:52.590Z,66.90
2022-12-15T22:50:22.190Z,67.80
2022-12-15T22:52:50.362Z,66.63
2022-12-15T22:55:20.920Z,68.03
2022-12-15T22:57:52.906Z,69.30
2022-12-15T23:00:22.602Z,68.82
2022-12-15T23:02:50.809Z,65.88
2022-12-15T23:05:20.073Z,66.95
2022-12-15T23:07:48.293Z,67.80
2022-12-15T23:10:35.072Z,67.72
2022-12-15T23:13:03.315Z,66.18
2022-12-15T23:15:50.165Z,67.88
2022-12-15T23:18:19.969Z,66.18
2022-12-15T23:20:48.093Z,66.10
2022-12-15T23:23:17.008Z,67.63
2022-12-15T23:25:46.814Z,67.93
2022-12-15T23:28:15.432Z,66.95
2022-12-15T23:30:49.084Z,65.35
2022-12-15T23:33:17.477Z,67.95
2022-12-15T23:35:45.737Z,66.15
2022-12-15T23:38:14.045Z,65.90
2022-12-15T23:40:50.982Z,64.20
2022-12-15T23:43:21.424Z,66.57
2022-12-15T23:45:58.182Z,64.32
2022-12-15T23:48:26.887Z,65.07
2022-12-15T23:50:55.157Z,65.00
2022-12-15T23:53:23.606Z,65.22
2022-12-15T23:55:51.907Z,62.65
2022-12-15T23:58:20.214Z,65.32
